Time;durP1;ratioP1;P1;durP2;ratioP2;P2;SDS_P1;SDS_P2;PMS_P1;PMS_P2;Temp;Humidity;BMP_temperature;BMP_pressure;BME280_temperature;BME280_humidity;BME280_pressure;Samples;Min_cycle;Max_cycle;Signal;HPM_P1;HPM_P2
2022/08/28 00:01:31;;;;;;;8.38;7.07;;;;;;;27.62;46.41;99660.91;4153865;28;20240;-65
2022/08/28 00:03:33;;;;;;;8.77;7.43;;;;;;;27.21;47.25;99674.53;4154010;28;20304;-65
2022/08/28 00:05:38;;;;;;;11.88;6.80;;;;;;;26.77;47.84;99681.25;4153677;28;20693;-65
2022/08/28 00:07:40;;;;;;;8.55;6.97;;;;;;;26.21;49.13;99673.66;4148561;28;20237;-65
2022/08/28 00:09:48;;;;;;;10.13;6.80;;;;;;;27.45;46.43;99667.44;4152235;28;20232;-65
2022/08/28 00:11:49;;;;;;;8.27;6.95;;;;;;;27.02;47.24;99663.31;4158673;28;20232;-65
2022/08/28 00:13:51;;;;;;;7.95;6.82;;;;;;;27.29;46.74;99667.72;4159262;28;20224;-65
2022/08/28 00:15:59;;;;;;;10.35;6.95;;;;;;;27.17;46.84;99671.53;4158469;28;20271;-65
2022/08/28 00:18:02;;;;;;;7.97;7.05;;;;;;;27.13;46.60;99670.44;4156937;28;20744;-64
2022/08/28 00:20:06;;;;;;;8.55;6.45;;;;;;;27.42;46.77;99659.00;4159841;28;20225;-65
2022/08/28 00:22:08;;;;;;;11.25;7.05;;;;;;;26.72;47.99;99673.06;4159780;28;20649;-65
2022/08/28 00:24:10;;;;;;;8.60;7.22;;;;;;;27.00;47.29;99670.94;4159199;28;20611;-64
2022/08/28 00:27:51;;;;;;;8.45;6.80;;;;;;;27.08;46.79;99673.19;4158714;28;20286;-64
2022/08/28 00:28:37;;;;;;;7.90;6.57;;;;;;;27.19;46.64;99672.06;4155733;28;20738;-65
2022/08/28 00:30:51;;;;;;;8.07;6.80;;;;;;;26.81;47.20;99668.72;4158864;28;20233;-65
2022/08/28 00:32:57;;;;;;;9.02;6.28;;;;;;;26.10;48.49;99680.97;4156424;28;20363;-64
2022/08/28 00:35:00;;;;;;;12.75;6.47;;;;;;;26.60;47.42;99676.03;4156172;28;20591;-64
2022/08/28 00:37:02;;;;;;;7.05;6.28;;;;;;;26.45;47.66;99668.56;4157673;28;20229;-64
2022/08/28 00:39:05;;;;;;;9.15;6.40;;;;;;;27.18;46.73;99661.44;4157073;28;20291;-63
2022/08/28 00:41:07;;;;;;;9.57;6.07;;;;;;;26.74;47.06;99673.63;4158322;28;20612;-64
2022/08/28 00:43:33;;;;;;;6.72;5.85;;;;;;;26.90;47.45;99658.91;4159921;28;20232;-64
2022/08/28 00:45:36;;;;;;;9.65;5.75;;;;;;;26.50;47.43;99668.66;4157273;28;20290;-64
2022/08/28 00:47:41;;;;;;;8.60;6.25;;;;;;;26.04;48.58;99660.22;4154934;28;20247;-64
2022/08/28 00:49:50;;;;;;;9.48;5.65;;;;;;;26.63;47.65;99658.31;4160864;28;20232;-64
2022/08/28 00:52:11;;;;;;;6.80;6.10;;;;;;;26.31;48.27;99651.91;4155928;28;20621;-64
2022/08/28 00:54:13;;;;;;;6.45;5.68;;;;;;;26.93;46.99;99657.56;4159708;28;20275;-63
2022/08/28 00:56:17;;;;;;;9.68;5.70;;;;;;;26.43;47.84;99669.94;4159720;28;20232;-63
2022/08/28 00:58:19;;;;;;;8.95;5.78;;;;;;;26.47;47.87;99671.88;4157865;28;20764;-64
2022/08/28 01:00:32;;;;;;;7.65;5.70;;;;;;;26.97;46.76;99666.03;4164511;28;20305;-63
2022/08/28 01:02:34;;;;;;;6.45;5.50;;;;;;;26.70;47.31;99673.31;4156970;28;20879;-66
2022/08/28 01:04:37;;;;;;;6.88;5.72;;;;;;;26.16;47.65;99682.63;4155482;28;20229;-64
2022/08/28 01:06:39;;;;;;;9.68;6.22;;;;;;;26.37;47.81;99662.81;4159337;28;20313;-64
2022/08/28 01:08:45;;;;;;;8.90;5.90;;;;;;;26.68;47.44;99670.03;4154859;28;20298;-64
2022/08/28 01:10:54;;;;;;;6.83;5.67;;;;;;;26.49;47.86;99669.69;4158206;28;20274;-63
2022/08/28 01:12:56;;;;;;;7.93;5.28;;;;;;;26.37;47.34;99682.75;4161579;28;20236;-64
2022/08/28 01:15:01;;;;;;;6.68;5.47;;;;;;;25.50;49.35;99663.94;4156871;28;20325;-64
2022/08/28 01:17:05;;;;;;;7.67;5.63;;;;;;;26.85;47.08;99666.28;4146930;28;20236;-64
2022/08/28 01:19:19;;;;;;;8.83;5.10;;;;;;;26.11;48.61;99670.88;4155318;28;20240;-64
2022/08/28 01:21:28;;;;;;;8.02;6.25;;;;;;;26.26;48.35;99670.16;4152672;28;20310;-65
2022/08/28 01:23:51;;;;;;;7.82;5.55;;;;;;;26.95;46.76;99657.31;4151311;28;20560;-63
2022/08/28 01:25:53;;;;;;;6.40;5.43;;;;;;;25.26;49.22;99677.06;4151267;28;20243;-63
2022/08/28 01:27:55;;;;;;;7.78;5.47;;;;;;;26.06;48.78;99660.78;4153903;28;20225;-63
2022/08/28 01:29:56;;;;;;;5.60;4.93;;;;;;;26.52;47.33;99661.03;4151393;28;20294;-64
2022/08/28 01:31:58;;;;;;;8.23;5.30;;;;;;;25.79;48.80;99669.84;4150799;28;20303;-65
2022/08/28 01:34:01;;;;;;;6.70;5.57;;;;;;;26.21;48.41;99664.69;4151760;28;20705;-63
2022/08/28 01:36:02;;;;;;;7.73;5.60;;;;;;;26.16;48.57;99662.72;4154599;28;20236;-65
2022/08/28 01:38:04;;;;;;;8.17;5.23;;;;;;;25.04;49.68;99677.94;4152637;28;20229;-65
2022/08/28 01:40:09;;;;;;;6.73;5.23;;;;;;;26.29;48.20;99656.00;4151848;28;20233;-63
2022/08/28 01:42:12;;;;;;;6.07;5.47;;;;;;;26.32;47.38;99674.53;4152938;28;20278;-63
2022/08/28 01:44:15;;;;;;;8.48;5.13;;;;;;;26.04;48.11;99676.56;4152623;28;20309;-63
2022/08/28 01:46:18;;;;;;;7.30;5.13;;;;;;;26.19;47.79;99683.19;4149496;28;20291;-63
2022/08/28 01:48:24;;;;;;;7.33;5.30;;;;;;;26.20;47.69;99673.91;4149864;28;20306;-63
2022/08/28 01:50:25;;;;;;;7.40;5.40;;;;;;;26.12;48.07;99683.44;4149885;28;20268;-63
2022/08/28 01:52:27;;;;;;;7.53;5.03;;;;;;;26.57;46.73;99678.47;4149382;28;21191;-64
2022/08/28 01:54:29;;;;;;;6.43;5.23;;;;;;;27.02;46.49;99680.47;4150816;28;20233;-63
2022/08/28 01:56:32;;;;;;;8.50;5.37;;;;;;;27.13;45.83;99680.53;4147428;28;20287;-67
2022/08/28 01:58:34;;;;;;;9.73;5.23;;;;;;;26.53;46.75;99684.44;4139138;28;20229;-63
2022/08/28 02:00:39;;;;;;;6.88;4.78;;;;;;;26.10;47.70;99689.16;4152479;28;20239;-63
2022/08/28 02:02:40;;;;;;;5.83;5.07;;;;;;;25.98;47.85;99685.78;4151463;28;20315;-65
2022/08/28 02:04:42;;;;;;;6.90;5.20;;;;;;;26.04;47.90;99686.66;4149415;28;20230;-63
2022/08/28 02:06:49;;;;;;;6.17;5.37;;;;;;;26.29;47.34;99672.34;4147349;28;20286;-63
2022/08/28 02:08:54;;;;;;;9.03;5.70;;;;;;;26.36;47.30;99681.09;4150285;28;20279;-66
2022/08/28 02:10:56;;;;;;;7.20;5.20;;;;;;;26.16;47.58;99673.63;4151737;28;20242;-63
2022/08/28 02:12:58;;;;;;;7.57;5.22;;;;;;;25.67;48.33;99677.41;4157403;28;20621;-63
2022/08/28 02:14:59;;;;;;;10.27;5.33;;;;;;;25.44;48.66;99672.31;4155207;28;20229;-64
2022/08/28 02:17:01;;;;;;;5.37;4.70;;;;;;;26.96;45.93;99665.22;4156690;28;20237;-64
2022/08/28 02:19:03;;;;;;;7.23;5.07;;;;;;;26.94;45.75;99672.00;4156016;28;20607;-63
2022/08/28 02:21:07;;;;;;;7.10;5.40;;;;;;;25.24;48.40;99692.81;4158018;28;20253;-63
2022/08/28 02:23:10;;;;;;;6.38;5.03;;;;;;;26.11;47.68;99671.69;4152878;28;20266;-63
2022/08/28 02:25:12;;;;;;;9.47;5.00;;;;;;;26.76;46.97;99657.81;4162558;28;20290;-63
2022/08/28 02:27:14;;;;;;;5.80;4.97;;;;;;;26.45;46.79;99674.03;4158608;28;20271;-64
2022/08/28 02:29:17;;;;;;;6.10;5.30;;;;;;;26.53;46.88;99672.72;4157998;28;20300;-65
2022/08/28 02:31:19;;;;;;;6.23;4.80;;;;;;;26.48;46.86;99670.78;4159626;28;20233;-64
2022/08/28 02:33:21;;;;;;;6.50;4.93;;;;;;;26.21;47.06;99678.28;4154781;28;20242;-64
2022/08/28 02:35:23;;;;;;;7.90;5.10;;;;;;;26.53;46.75;99676.28;4157454;28;20267;-64
2022/08/28 02:37:24;;;;;;;6.87;5.30;;;;;;;26.09;46.96;99679.31;4157433;28;20233;-65
2022/08/28 02:39:26;;;;;;;6.83;4.53;;;;;;;26.13;47.97;99668.72;4150884;28;20263;-65
2022/08/28 02:41:28;;;;;;;6.50;5.23;;;;;;;26.21;47.25;99672.84;4162773;28;20235;-64
2022/08/28 02:43:30;;;;;;;7.77;5.70;;;;;;;26.29;47.29;99666.91;4156892;28;20236;-62
2022/08/28 02:45:32;;;;;;;7.97;5.03;;;;;;;25.69;48.06;99679.84;4157314;28;20299;-64
2022/08/28 02:47:34;;;;;;;7.70;5.33;;;;;;;25.71;48.77;99656.75;4164059;28;20237;-63
2022/08/28 02:49:35;;;;;;;7.83;4.90;;;;;;;25.95;48.30;99662.63;4158971;28;20232;-63
2022/08/28 02:51:37;;;;;;;6.07;4.77;;;;;;;25.75;48.74;99654.31;4156482;28;20232;-64
2022/08/28 02:53:40;;;;;;;6.33;4.90;;;;;;;26.19;47.29;99656.75;4156270;28;20779;-64
2022/08/28 02:55:41;;;;;;;5.63;5.10;;;;;;;26.59;47.06;99646.28;4157447;28;20330;-64
2022/08/28 02:57:44;;;;;;;8.50;5.67;;;;;;;26.16;47.22;99670.91;4156591;28;20233;-64
2022/08/28 02:59:46;;;;;;;7.70;5.35;;;;;;;25.65;48.36;99670.59;4157411;28;20236;-64
2022/08/28 03:01:48;;;;;;;7.03;5.22;;;;;;;26.76;46.81;99656.97;4157514;28;20694;-64
2022/08/28 03:03:50;;;;;;;6.40;4.80;;;;;;;26.11;48.11;99660.81;4157073;28;20265;-63
2022/08/28 03:05:51;;;;;;;6.83;4.87;;;;;;;25.68;48.25;99660.00;4152525;28;20232;-63
2022/08/28 03:07:53;;;;;;;5.68;5.07;;;;;;;26.19;47.53;99658.69;4158246;28;20232;-64
2022/08/28 03:09:55;;;;;;;5.30;4.30;;;;;;;26.05;48.02;99652.88;4158113;28;20236;-64
2022/08/28 03:11:57;;;;;;;6.30;4.73;;;;;;;26.77;46.69;99648.53;4157250;28;20255;-63
2022/08/28 03:14:01;;;;;;;8.27;4.73;;;;;;;26.95;46.10;99652.66;4158175;28;20236;-63
2022/08/28 03:16:03;;;;;;;5.50;4.67;;;;;;;26.79;46.65;99665.47;4154816;28;20225;-63
2022/08/28 03:18:05;;;;;;;6.73;4.70;;;;;;;27.06;45.49;99669.88;4156332;28;20224;-63
2022/08/28 03:20:12;;;;;;;7.97;4.60;;;;;;;26.92;45.84;99672.28;4158845;28;20220;-64
2022/08/28 03:22:16;;;;;;;5.28;4.57;;;;;;;27.04;46.03;99674.75;4156983;28;20298;-64
2022/08/28 03:24:18;;;;;;;7.38;4.80;;;;;;;27.28;45.82;99671.53;4154126;28;20251;-63
2022/08/28 03:26:20;;;;;;;7.37;5.10;;;;;;;27.41;45.39;99680.00;4154405;28;20229;-64
2022/08/28 03:28:24;;;;;;;6.67;4.60;;;;;;;26.78;46.15;99684.81;4156629;28;20229;-64
2022/08/28 03:30:26;;;;;;;6.37;4.77;;;;;;;26.43;46.94;99670.75;4154208;28;20855;-64
2022/08/28 03:32:28;;;;;;;7.60;4.60;;;;;;;27.11;46.32;99669.06;4158201;28;20627;-64
2022/08/28 03:34:30;;;;;;;7.80;5.17;;;;;;;27.26;45.53;99666.34;4156982;28;20236;-64
2022/08/28 03:36:32;;;;;;;7.23;5.67;;;;;;;27.04;46.07;99669.31;4155063;28;20237;-64
2022/08/28 03:38:34;;;;;;;7.30;5.17;;;;;;;26.95;45.88;99679.13;4157596;28;20275;-63
2022/08/28 03:40:41;;;;;;;5.80;4.60;;;;;;;27.22;45.83;99681.63;4154310;28;20220;-64
2022/08/28 03:42:43;;;;;;;7.63;4.97;;;;;;;27.30;46.06;99678.38;4151925;28;20275;-62
2022/08/28 03:44:53;;;;;;;7.82;5.20;;;;;;;26.96;46.35;99687.03;4157282;28;20228;-63
2022/08/28 03:46:55;;;;;;;7.47;4.70;;;;;;;27.22;46.21;99684.38;4157868;28;20243;-64
2022/08/28 03:48:57;;;;;;;7.32;5.05;;;;;;;26.34;47.81;99677.81;4158411;28;20263;-64
2022/08/28 03:51:00;;;;;;;7.35;4.60;;;;;;;27.21;45.88;99672.63;4160109;28;20302;-64
2022/08/28 03:53:02;;;;;;;8.80;4.68;;;;;;;26.91;46.78;99673.41;4147748;28;20236;-64
2022/08/28 03:55:07;;;;;;;6.25;4.43;;;;;;;26.59;46.60;99679.84;4153163;28;20233;-64
2022/08/28 03:57:09;;;;;;;7.82;5.03;;;;;;;26.53;46.70;99667.28;4159189;28;20236;-64
2022/08/28 03:59:11;;;;;;;8.30;5.10;;;;;;;26.54;46.86;99668.94;4157873;28;20236;-64
2022/08/28 04:01:12;;;;;;;5.03;4.53;;;;;;;26.84;46.29;99670.09;4159702;28;20236;-64
2022/08/28 04:03:14;;;;;;;8.55;5.03;;;;;;;27.24;46.12;99661.16;4152739;28;20229;-63
2022/08/28 04:05:16;;;;;;;6.70;4.82;;;;;;;27.49;45.51;99662.25;4156158;28;20228;-64
2022/08/28 04:07:19;;;;;;;7.07;4.78;;;;;;;26.68;46.80;99674.69;4159610;28;20260;-64
2022/08/28 04:09:21;;;;;;;6.55;5.15;;;;;;;27.04;46.45;99669.31;4159146;28;20236;-64
2022/08/28 04:11:22;;;;;;;7.72;4.63;;;;;;;27.09;46.32;99677.53;4158870;28;20228;-64
2022/08/28 04:13:24;;;;;;;9.25;5.07;;;;;;;27.10;46.07;99670.19;4158792;28;20251;-63
2022/08/28 04:15:26;;;;;;;7.57;5.13;;;;;;;26.80;46.60;99682.63;4155614;28;20291;-64
2022/08/28 04:17:29;;;;;;;9.05;5.03;;;;;;;26.73;46.63;99666.53;4154109;28;20236;-64
2022/08/28 04:19:30;;;;;;;5.68;5.00;;;;;;;26.39;47.61;99666.13;4155731;28;20228;-64
2022/08/28 04:21:32;;;;;;;9.30;4.68;;;;;;;26.09;48.10;99682.03;4160843;28;20263;-64
2022/08/28 04:23:35;;;;;;;6.32;4.53;;;;;;;26.64;46.71;99663.50;4158070;28;20241;-64
2022/08/28 04:25:39;;;;;;;6.03;4.70;;;;;;;27.11;46.38;99667.16;4157672;28;20233;-64
2022/08/28 04:27:41;;;;;;;7.22;4.90;;;;;;;26.95;46.50;99679.13;4157403;28;21307;-65
2022/08/28 04:29:42;;;;;;;6.30;4.50;;;;;;;26.13;48.13;99685.91;4160475;28;20223;-65
2022/08/28 04:31:44;;;;;;;6.50;4.75;;;;;;;26.53;47.25;99680.91;4158958;28;20233;-64
2022/08/28 04:33:46;;;;;;;7.30;5.18;;;;;;;26.50;47.33;99678.69;4158605;28;20232;-64
2022/08/28 04:35:48;;;;;;;10.30;4.77;;;;;;;26.59;47.01;99681.75;4162657;28;20267;-64
2022/08/28 04:37:49;;;;;;;12.93;5.87;;;;;;;26.56;47.02;99682.31;4160565;28;20229;-64
2022/08/28 04:39:51;;;;;;;10.00;5.32;;;;;;;25.76;48.35;99689.47;4159876;28;20232;-64
2022/08/28 04:41:54;;;;;;;7.78;5.07;;;;;;;26.33;47.51;99676.97;4159664;28;20705;-64
2022/08/28 04:43:57;;;;;;;7.10;4.88;;;;;;;26.79;46.41;99676.38;4159347;28;20799;-65
2022/08/28 04:46:03;;;;;;;9.32;4.95;;;;;;;26.62;46.69;99682.06;4159371;28;20245;-64
2022/08/28 04:48:05;;;;;;;7.03;4.68;;;;;;;26.56;47.29;99682.31;4158989;28;20243;-64
2022/08/28 04:50:14;;;;;;;6.05;4.97;;;;;;;26.09;47.83;99692.94;4156564;28;20303;-65
2022/08/28 04:52:15;;;;;;;10.30;5.43;;;;;;;27.11;46.13;99683.53;4160955;28;20224;-65
2022/08/28 04:54:17;;;;;;;6.33;4.70;;;;;;;26.70;46.38;99683.41;4153248;28;20233;-64
2022/08/28 04:56:19;;;;;;;8.97;5.10;;;;;;;26.76;46.35;99693.25;4156401;28;20846;-65
2022/08/28 04:58:21;;;;;;;7.60;5.50;;;;;;;27.14;45.52;99699.34;4158115;28;20298;-64
2022/08/28 05:00:24;;;;;;;9.63;5.10;;;;;;;27.28;45.49;99694.22;4156129;28;20967;-64
2022/08/28 05:02:26;;;;;;;8.73;5.00;;;;;;;27.08;45.92;99690.34;4156977;28;20661;-64
2022/08/28 05:04:28;;;;;;;5.90;4.88;;;;;;;27.05;46.17;99687.31;4157907;28;20236;-65
2022/08/28 05:06:32;;;;;;;6.10;4.97;;;;;;;27.03;45.70;99697.69;4156288;28;20245;-64
2022/08/28 05:08:34;;;;;;;5.40;4.50;;;;;;;26.61;46.99;99713.13;4157816;28;20224;-64
2022/08/28 05:10:36;;;;;;;6.30;5.05;;;;;;;26.40;46.98;99712.16;4159933;28;20225;-64
2022/08/28 05:12:37;;;;;;;6.47;5.40;;;;;;;26.81;46.39;99700.66;4157276;28;20275;-65
2022/08/28 05:14:39;;;;;;;8.33;4.93;;;;;;;26.78;46.31;99701.19;4160954;28;20236;-64
2022/08/28 05:16:51;;;;;;;9.63;5.43;;;;;;;26.50;47.55;99695.03;4157982;28;20765;-64
2022/08/28 05:18:53;;;;;;;5.83;4.27;;;;;;;26.97;46.23;99694.13;4157369;28;20271;-64
2022/08/28 05:20:54;;;;;;;6.40;5.10;;;;;;;26.77;46.99;99694.06;4160392;28;20405;-65
2022/08/28 05:22:56;;;;;;;5.57;4.50;;;;;;;26.63;46.90;99702.75;4161036;28;20232;-64
2022/08/28 05:24:59;;;;;;;5.67;4.63;;;;;;;27.13;45.85;99697.75;4158026;28;20724;-65
2022/08/28 05:27:02;;;;;;;6.97;5.00;;;;;;;26.04;48.05;99706.53;4157244;28;20287;-64
2022/08/28 05:29:04;;;;;;;6.80;5.13;;;;;;;26.87;46.55;99703.09;4157834;28;20712;-64
2022/08/28 05:31:11;;;;;;;9.05;4.50;;;;;;;26.14;47.77;99708.50;4156726;28;20279;-64
2022/08/28 05:33:14;;;;;;;6.78;4.43;;;;;;;26.40;47.63;99714.09;4158352;28;20331;-64
2022/08/28 05:35:16;;;;;;;6.47;4.55;;;;;;;26.82;46.87;99710.44;4157965;28;20228;-64
2022/08/28 05:37:19;;;;;;;6.00;4.38;;;;;;;26.39;47.34;99712.47;4156215;28;20753;-65
2022/08/28 05:39:20;;;;;;;5.50;5.00;;;;;;;26.20;47.40;99717.53;4157672;28;20232;-64
2022/08/28 05:41:25;;;;;;;7.50;5.20;;;;;;;25.97;48.21;99716.84;4159907;28;20240;-63
2022/08/28 05:43:26;;;;;;;6.78;4.93;;;;;;;26.69;46.53;99725.44;4156942;28;20271;-64
2022/08/28 05:45:28;;;;;;;6.57;5.18;;;;;;;26.57;46.80;99722.94;4157984;28;20930;-64
2022/08/28 05:47:31;;;;;;;7.97;5.07;;;;;;;26.22;47.25;99734.41;4158433;28;20244;-64
2022/08/28 05:49:33;;;;;;;7.30;4.70;;;;;;;26.30;47.44;99723.88;4157830;28;20229;-64
2022/08/28 05:51:35;;;;;;;7.15;4.97;;;;;;;26.63;46.88;99727.31;4160318;28;20225;-64
2022/08/28 05:53:40;;;;;;;4.85;4.32;;;;;;;26.79;46.38;99722.75;4159786;28;20245;-64
2022/08/28 05:55:41;;;;;;;7.60;5.10;;;;;;;26.51;46.94;99721.25;4157688;28;20244;-64
2022/08/28 05:57:44;;;;;;;10.85;5.20;;;;;;;24.91;49.59;99738.19;4157283;28;20233;-64
2022/08/28 05:59:45;;;;;;;6.20;4.43;;;;;;;25.52;49.04;99723.56;4160581;28;20289;-64
2022/08/28 06:01:48;;;;;;;6.07;5.30;;;;;;;25.21;49.45;99724.06;4157429;28;20327;-64
2022/08/28 06:03:59;;;;;;;5.83;4.90;;;;;;;26.14;48.00;99722.94;4154294;28;20850;-64
2022/08/28 06:06:01;;;;;;;6.45;4.50;;;;;;;26.62;46.72;99725.69;4154691;28;20681;-64
2022/08/28 06:08:03;;;;;;;9.03;4.70;;;;;;;26.13;47.60;99724.03;4160054;28;20281;-64
2022/08/28 06:10:06;;;;;;;9.93;4.50;;;;;;;26.20;47.67;99736.59;4160199;28;20590;-64
2022/08/28 06:12:12;;;;;;;9.67;4.90;;;;;;;26.07;47.86;99729.72;4156944;28;20240;-64
2022/08/28 06:14:18;;;;;;;5.90;4.88;;;;;;;26.33;47.88;99731.50;4156883;28;20645;-64
2022/08/28 06:16:20;;;;;;;6.40;4.93;;;;;;;24.88;49.95;99738.69;4152963;28;20233;-64
2022/08/28 06:18:23;;;;;;;8.00;4.50;;;;;;;25.92;48.00;99727.69;4157536;28;20315;-64
2022/08/28 06:20:24;;;;;;;5.70;4.17;;;;;;;25.90;47.82;99741.56;4156866;28;20224;-64
2022/08/28 06:22:26;;;;;;;6.67;4.30;;;;;;;25.92;48.45;99742.13;4158971;28;20801;-64
2022/08/28 06:24:29;;;;;;;7.13;4.57;;;;;;;25.78;48.01;99739.03;4156904;28;20232;-65
2022/08/28 06:26:30;;;;;;;5.40;4.32;;;;;;;25.16;49.50;99736.81;4157746;28;20232;-65
2022/08/28 06:28:33;;;;;;;8.85;4.38;;;;;;;25.69;48.57;99739.75;4157751;28;20317;-64
2022/08/28 06:30:36;;;;;;;7.13;4.55;;;;;;;25.66;48.62;99738.41;4159311;28;20229;-64
2022/08/28 06:32:40;;;;;;;6.40;5.03;;;;;;;25.40;49.02;99737.34;4157584;28;20259;-64
2022/08/28 06:34:42;;;;;;;6.17;4.43;;;;;;;26.14;47.86;99746.66;4156024;28;20229;-64
2022/08/28 06:36:43;;;;;;;6.33;4.33;;;;;;;25.90;48.08;99748.94;4151874;28;20235;-64
2022/08/28 06:38:45;;;;;;;6.97;4.77;;;;;;;25.53;48.90;99753.25;4156936;28;20229;-64
2022/08/28 06:40:50;;;;;;;6.87;4.10;;;;;;;26.03;47.89;99759.41;4153446;28;20224;-64
2022/08/28 06:42:52;;;;;;;6.63;4.82;;;;;;;25.05;49.50;99749.47;4159442;28;20232;-63
2022/08/28 06:44:54;;;;;;;7.03;5.30;;;;;;;25.09;49.77;99752.50;4155249;28;20274;-64
2022/08/28 06:46:56;;;;;;;6.83;4.90;;;;;;;25.83;48.29;99751.03;4161695;28;20301;-64
2022/08/28 06:48:58;;;;;;;7.13;4.32;;;;;;;26.25;47.28;99763.88;4153470;28;20271;-65
2022/08/28 06:50:59;;;;;;;7.43;4.55;;;;;;;26.00;48.29;99759.94;4155590;28;20616;-64
2022/08/28 06:53:01;;;;;;;6.40;4.55;;;;;;;25.91;48.52;99756.00;4156071;28;20256;-64
2022/08/28 06:55:03;;;;;;;6.28;4.50;;;;;;;25.55;48.96;99770.13;4157102;28;20236;-64
2022/08/28 06:57:05;;;;;;;8.10;4.23;;;;;;;25.82;48.34;99768.47;4156536;28;20740;-64
2022/08/28 06:59:06;;;;;;;6.43;4.38;;;;;;;25.68;48.84;99768.06;4157921;28;20232;-64
2022/08/28 07:01:21;;;;;;;7.28;4.47;;;;;;;26.06;48.33;99761.56;4158139;28;20236;-64
2022/08/28 07:03:23;;;;;;;6.87;4.43;;;;;;;25.23;49.61;99772.78;4155426;28;20232;-64
2022/08/28 07:05:25;;;;;;;6.65;4.55;;;;;;;24.89;49.79;99772.97;4157211;28;20255;-63
2022/08/28 07:07:26;;;;;;;6.72;4.43;;;;;;;24.90;50.16;99768.34;4155189;28;20233;-64
2022/08/28 07:09:33;;;;;;;7.32;4.80;;;;;;;26.28;47.10;99763.34;4157084;28;20782;-64
2022/08/28 07:11:35;;;;;;;7.22;3.90;;;;;;;26.05;48.38;99776.31;4158076;28;20249;-64
2022/08/28 07:13:37;;;;;;;8.50;4.38;;;;;;;26.08;48.57;99774.94;4156604;28;20298;-64
2022/08/28 07:15:38;;;;;;;8.07;4.30;;;;;;;25.30;49.63;99787.00;4155670;28;20237;-64
2022/08/28 07:17:42;;;;;;;5.53;4.03;;;;;;;25.51;49.28;99790.81;4156877;28;20773;-64
2022/08/28 07:19:44;;;;;;;4.97;4.20;;;;;;;25.60;48.49;99794.69;4152557;28;20263;-64
2022/08/28 07:21:46;;;;;;;8.32;5.03;;;;;;;25.09;49.63;99802.31;4151253;28;20240;-64
2022/08/28 07:23:49;;;;;;;6.68;3.83;;;;;;;25.82;48.53;99798.44;4152127;28;20674;-65
2022/08/28 07:25:51;;;;;;;5.13;3.85;;;;;;;26.07;47.94;99792.38;4155605;28;20255;-65
2022/08/28 07:27:53;;;;;;;5.72;4.35;;;;;;;25.84;48.64;99797.06;4151196;28;20282;-65
2022/08/28 07:29:54;;;;;;;7.50;4.15;;;;;;;26.77;47.03;99793.06;4154535;28;20936;-63
2022/08/28 07:31:57;;;;;;;7.85;3.95;;;;;;;26.54;46.87;99810.72;4159932;28;20906;-63
2022/08/28 07:33:59;;;;;;;6.75;4.22;;;;;;;26.46;47.82;99812.00;4159000;28;20224;-64
2022/08/28 07:36:02;;;;;;;5.43;4.07;;;;;;;26.38;48.00;99793.41;4160282;28;20786;-64
2022/08/28 07:38:03;;;;;;;6.78;3.85;;;;;;;25.89;48.69;99805.28;4158287;28;20225;-63
2022/08/28 07:40:07;;;;;;;10.45;4.15;;;;;;;26.17;48.63;99800.63;4157810;28;20275;-63
2022/08/28 07:44:47;;;;;;;6.10;4.20;;;;;;;26.05;48.30;99813.59;4159508;28;20315;-64
2022/08/28 07:44:53;;;;;;;7.70;4.72;;;;;;;26.43;48.02;99804.31;4158394;28;20720;-64
2022/08/28 07:46:58;;;;;;;6.68;4.40;;;;;;;26.48;47.99;99798.09;4156605;28;20300;-63
2022/08/28 07:49:00;;;;;;;7.28;4.75;;;;;;;25.33;48.94;99819.16;4153709;28;20836;-64
2022/08/28 07:51:03;;;;;;;6.70;4.65;;;;;;;25.96;48.88;99799.66;4151541;28;20236;-63
2022/08/28 07:53:05;;;;;;;6.78;4.90;;;;;;;25.99;48.79;99807.31;4150768;28;20660;-63
2022/08/28 07:55:07;;;;;;;5.50;4.57;;;;;;;26.23;48.00;99798.75;4148325;28;20237;-64
2022/08/28 07:57:09;;;;;;;7.97;5.40;;;;;;;26.21;48.30;99804.47;4150080;28;20237;-63
2022/08/28 07:59:12;;;;;;;6.63;4.45;;;;;;;26.89;47.53;99798.31;4150954;28;20237;-63
2022/08/28 08:01:18;;;;;;;6.82;4.88;;;;;;;26.37;48.11;99816.31;4157558;28;20235;-64
2022/08/28 08:03:21;;;;;;;11.18;5.18;;;;;;;26.44;48.79;99810.63;4151049;28;20240;-64
2022/08/28 08:05:24;;;;;;;6.30;4.80;;;;;;;27.06;47.41;99822.69;4149607;28;20963;-65
2022/08/28 08:07:26;;;;;;;6.15;4.18;;;;;;;26.41;47.84;99827.50;4153599;28;20233;-64
2022/08/28 08:09:27;;;;;;;9.63;5.28;;;;;;;26.36;48.74;99824.75;4151299;28;20767;-64
2022/08/28 08:11:29;;;;;;;12.38;5.63;;;;;;;26.44;47.96;99826.97;4154556;28;20263;-64
2022/08/28 08:13:37;;;;;;;7.97;5.05;;;;;;;27.13;46.83;99816.97;4150359;28;20243;-64
2022/08/28 08:15:40;;;;;;;8.80;5.40;;;;;;;27.23;46.76;99834.22;4149940;28;20755;-64
2022/08/28 08:17:41;;;;;;;7.40;4.68;;;;;;;27.45;46.33;99842.19;4156451;28;20389;-64
2022/08/28 08:19:43;;;;;;;7.60;4.60;;;;;;;26.48;47.80;99844.44;4158255;28;20221;-64
2022/08/28 08:21:51;;;;;;;7.72;4.65;;;;;;;26.63;47.01;99838.28;4155773;28;20365;-64
2022/08/28 08:23:55;;;;;;;8.10;4.30;;;;;;;27.85;46.12;99828.06;4155966;28;20721;-63
2022/08/28 08:25:58;;;;;;;6.55;4.80;;;;;;;28.22;45.80;99827.00;4156787;28;20236;-63
2022/08/28 08:28:02;;;;;;;9.10;4.95;;;;;;;27.57;46.07;99828.28;4156518;28;20229;-63
2022/08/28 08:30:04;;;;;;;8.25;5.28;;;;;;;27.89;45.71;99827.25;4159042;28;20220;-63
2022/08/28 08:32:09;;;;;;;7.68;4.78;;;;;;;27.72;46.53;99837.59;4159682;28;20302;-63
2022/08/28 08:34:11;;;;;;;7.45;5.00;;;;;;;27.58;46.17;99840.88;4160840;28;20232;-63
2022/08/28 08:36:14;;;;;;;6.50;5.00;;;;;;;27.87;46.04;99854.03;4153863;28;20229;-65
2022/08/28 08:38:15;;;;;;;9.57;5.10;;;;;;;28.34;45.25;99839.28;4158985;28;20251;-64
2022/08/28 08:40:19;;;;;;;7.28;5.10;;;;;;;27.50;46.20;99854.19;4156333;28;20249;-63
2022/08/28 08:42:28;;;;;;;6.25;5.13;;;;;;;28.08;45.40;99846.66;4160347;28;20229;-63
2022/08/28 08:44:40;;;;;;;9.85;5.68;;;;;;;28.35;45.34;99843.63;4154112;28;20228;-65
2022/08/28 08:47:17;;;;;;;8.20;5.38;;;;;;;27.57;45.97;99854.78;4155899;28;20236;-63
2022/08/28 08:49:24;;;;;;;11.40;6.45;;;;;;;27.96;45.86;99857.03;4155105;28;20233;-63
2022/08/28 08:51:40;;;;;;;7.00;5.15;;;;;;;28.15;45.61;99863.63;4159126;28;20692;-64
2022/08/28 08:53:54;;;;;;;6.30;5.00;;;;;;;28.04;45.52;99869.31;4155762;28;20254;-64
2022/08/28 08:55:57;;;;;;;7.85;5.60;;;;;;;28.16;45.68;99857.06;4160147;28;20306;-63
2022/08/28 08:58:01;;;;;;;9.02;5.22;;;;;;;28.20;45.27;99862.81;4157004;28;20303;-65
2022/08/28 09:00:09;;;;;;;7.78;5.47;;;;;;;28.18;44.98;99870.47;4160590;28;20291;-63
2022/08/28 09:02:22;;;;;;;8.32;5.38;;;;;;;27.94;45.68;99856.50;4157885;28;20687;-65
2022/08/28 09:04:38;;;;;;;6.65;5.10;;;;;;;28.69;44.44;99858.66;4156626;28;20229;-62
2022/08/28 09:07:14;;;;;;;8.90;5.72;;;;;;;28.08;45.49;99863.03;4156290;28;20228;-65
2022/08/28 09:09:29;;;;;;;6.13;4.95;;;;;;;28.42;44.83;99865.22;4150056;28;20294;-64
2022/08/28 09:11:48;;;;;;;8.07;5.18;;;;;;;28.78;44.15;99867.94;4157651;28;20232;-64
2022/08/28 09:14:32;;;;;;;7.18;5.40;;;;;;;28.50;44.91;99867.41;4148444;28;20736;-64
2022/08/28 09:16:39;;;;;;;8.32;5.65;;;;;;;29.19;43.65;99869.69;4146105;28;20232;-64
2022/08/28 09:18:41;;;;;;;13.30;5.65;;;;;;;28.77;44.24;99873.69;4153051;28;20229;-63
2022/08/28 09:20:48;;;;;;;6.72;5.35;;;;;;;28.84;44.24;99866.81;4153825;28;20235;-64
2022/08/28 09:22:50;;;;;;;10.48;5.15;;;;;;;28.50;44.59;99874.81;4156296;28;20225;-64
2022/08/28 09:24:52;;;;;;;9.52;5.50;;;;;;;28.97;44.16;99865.41;4156229;28;20225;-64
2022/08/28 09:27:30;;;;;;;9.30;5.40;;;;;;;28.47;44.40;99873.44;4156986;28;20232;-63
2022/08/28 09:29:35;;;;;;;12.85;10.48;;;;;;;28.43;45.25;99868.78;4154212;28;20462;-64
2022/08/28 09:31:40;;;;;;;9.52;6.07;;;;;;;28.98;44.57;99866.22;4154433;28;20233;-64
2022/08/28 09:33:45;;;;;;;6.93;4.80;;;;;;;28.82;44.69;99854.53;4160593;28;20627;-65
2022/08/28 09:35:46;;;;;;;9.90;6.10;;;;;;;29.00;43.83;99864.84;4158606;28;20698;-64
2022/08/28 09:37:48;;;;;;;8.82;5.80;;;;;;;29.09;44.27;99878.78;4159161;28;20606;-64
2022/08/28 09:43:25;;;;;;;7.70;5.05;;;;;;;28.44;44.90;99863.03;4157654;28;20225;-64
2022/08/28 09:45:25;;;;;;;7.63;5.00;;;;;;;28.47;44.81;99867.97;4155436;28;20294;-64
2022/08/28 09:47:36;;;;;;;6.30;5.22;;;;;;;28.85;43.84;99863.00;4156731;28;20236;-64